Portada
METAR-TAF:

METAR-TAF

Aeropuertos :

Zaragoza, España

Aeropuerto de Zaragoza

latitud: 41-40N, longitud: 001-01W, altitud: 263 m

Observación

El informe se hizo hace 43 minutos, a las 07:30 UTC
Viento 3 kt del este
Temperatura 9°C
Humedad 100%
Presión 1026 hPa
Visibilidad: 6000 m
Escasas nubes a una altura de 200 ft
Cielo nuboso a una altura de 8000 ft

METAR: LEZG 280730Z 10003KT 6000 FEW002 BKN080 09/09 Q1026

Hora: 10:13 (08:13 UTC)

Pronóstico

El informe se hizo hace 25 minutos, a las 07:48 UTC
Pronóstico válido del 28 a las 07 UTC al 29 a las 06 UTC
Viento 4 kt con dirección variable
Visibilidad 10 km o más
Escasas nubes a una altura de 4000 ft
Probabilidad 30% :
Temporalmente
del 28 a las 07 UTC al 28 a las 10 UTC
Visibilidad: 4000 m
Nubes dispersas a una altura de 200 ft
neblina

TAF: LEZG 280748Z 2807/2906 VRB04KT 9999 FEW040 TX20/2815Z TN07/2807Z PROB30 TEMPO 2807/2810 4000 BR SCT002

Observaciones y pronósticos meteorológicos de más de 4000 aeropuertos (mensajes METAR y TAF).

Los puntos amarillos y rojos representan las estaciones disponibles.

Ponga el ratón en el punto deseado para ver el nombre de la estación.

Haga clic para ver las observaciones y los pronósticos meteorológicos.

Para cambiar el mapa : haga clic en los botones verdes con una cruz de color negro para hacer un zoom, en el botón verde con un guión para alejar o en las flechas verdes para mapas adyacentes.


METAR-TAF: